sensor_id;sensor_type;location;lat;lon;timestamp;temperature;humidity
16289;DHT22;26089;43.538;5.250;2023-04-06T00:00:33;8.40;94.50
16289;DHT22;26089;43.538;5.250;2023-04-06T00:03:01;8.40;94.40
16289;DHT22;26089;43.538;5.250;2023-04-06T00:05:28;8.40;94.30
16289;DHT22;26089;43.538;5.250;2023-04-06T00:07:57;8.40;94.50
16289;DHT22;26089;43.538;5.250;2023-04-06T00:10:24;7.90;94.30
16289;DHT22;26089;43.538;5.250;2023-04-06T00:12:52;8.40;94.50
16289;DHT22;26089;43.538;5.250;2023-04-06T00:15:19;8.40;95.00
16289;DHT22;26089;43.538;5.250;2023-04-06T00:17:48;8.20;95.20
16289;DHT22;26089;43.538;5.250;2023-04-06T00:20:15;8.20;95.30
16289;DHT22;26089;43.538;5.250;2023-04-06T00:22:42;8.20;95.00
16289;DHT22;26089;43.538;5.250;2023-04-06T00:25:10;8.30;95.00
16289;DHT22;26089;43.538;5.250;2023-04-06T00:27:37;8.40;95.10
16289;DHT22;26089;43.538;5.250;2023-04-06T00:30:06;8.40;95.00
16289;DHT22;26089;43.538;5.250;2023-04-06T00:32:34;8.40;95.70
16289;DHT22;26089;43.538;5.250;2023-04-06T00:35:04;8.30;95.70
16289;DHT22;26089;43.538;5.250;2023-04-06T00:37:31;8.20;96.00
16289;DHT22;26089;43.538;5.250;2023-04-06T00:39:58;8.60;96.20
16289;DHT22;26089;43.538;5.250;2023-04-06T00:42:25;7.90;96.10
16289;DHT22;26089;43.538;5.250;2023-04-06T00:44:53;8.10;96.00
16289;DHT22;26089;43.538;5.250;2023-04-06T00:47:21;8.00;96.00
16289;DHT22;26089;43.538;5.250;2023-04-06T00:49:48;8.00;96.30
16289;DHT22;26089;43.538;5.250;2023-04-06T00:52:16;8.00;96.30
16289;DHT22;26089;43.538;5.250;2023-04-06T00:54:44;8.30;96.40
16289;DHT22;26089;43.538;5.250;2023-04-06T00:57:11;8.10;96.50
16289;DHT22;26089;43.538;5.250;2023-04-06T00:59:39;8.10;96.00
16289;DHT22;26089;43.538;5.250;2023-04-06T01:02:06;8.10;95.80
16289;DHT22;26089;43.538;5.250;2023-04-06T01:04:34;8.10;95.70
16289;DHT22;26089;43.538;5.250;2023-04-06T01:07:01;8.10;95.90
16289;DHT22;26089;43.538;5.250;2023-04-06T01:09:30;8.00;95.90
16289;DHT22;26089;43.538;5.250;2023-04-06T01:11:57;7.90;96.10
16289;DHT22;26089;43.538;5.250;2023-04-06T01:14:24;7.90;96.10
16289;DHT22;26089;43.538;5.250;2023-04-06T01:16:52;7.60;96.20
16289;DHT22;26089;43.538;5.250;2023-04-06T01:19:19;7.80;96.50
16289;DHT22;26089;43.538;5.250;2023-04-06T01:21:47;7.90;96.50
16289;DHT22;26089;43.538;5.250;2023-04-06T01:24:16;8.00;96.40
16289;DHT22;26089;43.538;5.250;2023-04-06T01:26:44;8.00;96.60
16289;DHT22;26089;43.538;5.250;2023-04-06T01:29:11;8.10;97.20
16289;DHT22;26089;43.538;5.250;2023-04-06T01:31:39;8.10;97.60
16289;DHT22;26089;43.538;5.250;2023-04-06T01:34:06;8.10;97.70
16289;DHT22;26089;43.538;5.250;2023-04-06T01:36:33;8.10;98.00
16289;DHT22;26089;43.538;5.250;2023-04-06T01:39:00;8.10;98.20
16289;DHT22;26089;43.538;5.250;2023-04-06T01:41:29;7.90;98.50
16289;DHT22;26089;43.538;5.250;2023-04-06T01:43:56;8.00;98.80
16289;DHT22;26089;43.538;5.250;2023-04-06T01:46:23;7.90;99.00
16289;DHT22;26089;43.538;5.250;2023-04-06T01:48:50;7.80;99.10
16289;DHT22;26089;43.538;5.250;2023-04-06T01:51:17;7.70;99.80
16289;DHT22;26089;43.538;5.250;2023-04-06T01:53:44;7.60;99.90
16289;DHT22;26089;43.538;5.250;2023-04-06T01:56:11;7.10;99.90
16289;DHT22;26089;43.538;5.250;2023-04-06T01:58:40;7.60;99.90
16289;DHT22;26089;43.538;5.250;2023-04-06T02:01:07;7.80;99.90
16289;DHT22;26089;43.538;5.250;2023-04-06T02:03:34;7.70;99.90
16289;DHT22;26089;43.538;5.250;2023-04-06T02:06:01;7.90;99.90
16289;DHT22;26089;43.538;5.250;2023-04-06T02:08:29;7.40;99.90
16289;DHT22;26089;43.538;5.250;2023-04-06T02:10:56;7.80;99.90
16289;DHT22;26089;43.538;5.250;2023-04-06T02:13:23;7.70;99.90
16289;DHT22;26089;43.538;5.250;2023-04-06T02:15:51;7.80;99.90
16289;DHT22;26089;43.538;5.250;2023-04-06T02:18:18;7.70;99.90
16289;DHT22;26089;43.538;5.250;2023-04-06T02:20:45;7.80;99.90
16289;DHT22;26089;43.538;5.250;2023-04-06T02:23:12;7.70;99.90
16289;DHT22;26089;43.538;5.250;2023-04-06T02:25:40;8.10;99.90
16289;DHT22;26089;43.538;5.250;2023-04-06T02:28:07;7.50;99.90
16289;DHT22;26089;43.538;5.250;2023-04-06T02:30:34;7.40;99.90
16289;DHT22;26089;43.538;5.250;2023-04-06T02:33:03;7.10;99.90
16289;DHT22;26089;43.538;5.250;2023-04-06T02:35:30;7.20;99.90
16289;DHT22;26089;43.538;5.250;2023-04-06T02:37:57;7.10;99.90
16289;DHT22;26089;43.538;5.250;2023-04-06T02:40:24;7.10;99.90
16289;DHT22;26089;43.538;5.250;2023-04-06T02:42:51;7.10;99.90
16289;DHT22;26089;43.538;5.250;2023-04-06T02:45:18;7.10;99.90
16289;DHT22;26089;43.538;5.250;2023-04-06T02:47:46;7.10;99.90
16289;DHT22;26089;43.538;5.250;2023-04-06T02:50:14;7.20;99.90
16289;DHT22;26089;43.538;5.250;2023-04-06T02:52:41;7.10;99.90
16289;DHT22;26089;43.538;5.250;2023-04-06T02:55:09;7.00;99.90
16289;DHT22;26089;43.538;5.250;2023-04-06T02:57:36;7.00;99.90
16289;DHT22;26089;43.538;5.250;2023-04-06T03:00:04;7.00;99.90
16289;DHT22;26089;43.538;5.250;2023-04-06T03:02:31;6.80;99.90
16289;DHT22;26089;43.538;5.250;2023-04-06T03:04:58;6.80;99.90
16289;DHT22;26089;43.538;5.250;2023-04-06T03:07:26;6.70;99.90
16289;DHT22;26089;43.538;5.250;2023-04-06T03:09:54;6.70;99.90
16289;DHT22;26089;43.538;5.250;2023-04-06T03:12:21;6.80;99.90
16289;DHT22;26089;43.538;5.250;2023-04-06T03:14:48;6.90;99.90
16289;DHT22;26089;43.538;5.250;2023-04-06T03:17:15;6.90;99.90
16289;DHT22;26089;43.538;5.250;2023-04-06T03:19:42;6.90;99.90
16289;DHT22;26089;43.538;5.250;2023-04-06T03:22:09;7.00;99.90
16289;DHT22;26089;43.538;5.250;2023-04-06T03:24:37;6.80;99.90
16289;DHT22;26089;43.538;5.250;2023-04-06T03:27:04;6.70;99.90
16289;DHT22;26089;43.538;5.250;2023-04-06T03:29:32;6.60;99.90
16289;DHT22;26089;43.538;5.250;2023-04-06T03:31:59;6.50;99.90
16289;DHT22;26089;43.538;5.250;2023-04-06T03:34:26;6.60;99.90
16289;DHT22;26089;43.538;5.250;2023-04-06T03:36:53;6.90;99.90
16289;DHT22;26089;43.538;5.250;2023-04-06T03:39:20;7.30;99.90
16289;DHT22;26089;43.538;5.250;2023-04-06T03:41:48;6.50;99.90
16289;DHT22;26089;43.538;5.250;2023-04-06T03:44:15;6.60;99.90
16289;DHT22;26089;43.538;5.250;2023-04-06T03:46:42;6.40;99.90
16289;DHT22;26089;43.538;5.250;2023-04-06T03:49:09;6.40;99.90
16289;DHT22;26089;43.538;5.250;2023-04-06T03:51:36;6.30;99.90
16289;DHT22;26089;43.538;5.250;2023-04-06T03:54:03;6.90;99.90
16289;DHT22;26089;43.538;5.250;2023-04-06T03:56:32;6.30;99.90
16289;DHT22;26089;43.538;5.250;2023-04-06T03:59:00;6.20;99.90
16289;DHT22;26089;43.538;5.250;2023-04-06T04:01:28;7.10;99.90
16289;DHT22;26089;43.538;5.250;2023-04-06T04:03:55;6.20;99.90
16289;DHT22;26089;43.538;5.250;2023-04-06T04:06:22;6.70;99.90
16289;DHT22;26089;43.538;5.250;2023-04-06T04:08:49;6.10;99.90
16289;DHT22;26089;43.538;5.250;2023-04-06T04:11:16;6.10;99.90
16289;DHT22;26089;43.538;5.250;2023-04-06T04:13:43;4.60;99.90
16289;DHT22;26089;43.538;5.250;2023-04-06T04:16:12;6.00;99.90
16289;DHT22;26089;43.538;5.250;2023-04-06T04:18:39;6.00;99.90
16289;DHT22;26089;43.538;5.250;2023-04-06T04:21:06;6.00;99.90
16289;DHT22;26089;43.538;5.250;2023-04-06T04:23:32;6.00;99.90
16289;DHT22;26089;43.538;5.250;2023-04-06T04:26:00;6.00;99.90
16289;DHT22;26089;43.538;5.250;2023-04-06T04:28:26;6.00;99.90
16289;DHT22;26089;43.538;5.250;2023-04-06T04:30:54;5.90;99.90
16289;DHT22;26089;43.538;5.250;2023-04-06T04:33:22;5.80;99.90
16289;DHT22;26089;43.538;5.250;2023-04-06T04:35:49;5.80;99.90
16289;DHT22;26089;43.538;5.250;2023-04-06T04:38:16;5.20;99.90
16289;DHT22;26089;43.538;5.250;2023-04-06T04:40:43;5.70;99.90
16289;DHT22;26089;43.538;5.250;2023-04-06T04:43:10;6.10;99.90
16289;DHT22;26089;43.538;5.250;2023-04-06T04:45:37;5.60;99.90
16289;DHT22;26089;43.538;5.250;2023-04-06T04:48:05;5.50;99.90
16289;DHT22;26089;43.538;5.250;2023-04-06T04:50:34;5.40;99.90
16289;DHT22;26089;43.538;5.250;2023-04-06T04:53:01;5.40;99.90
16289;DHT22;26089;43.538;5.250;2023-04-06T04:55:30;5.90;99.90
16289;DHT22;26089;43.538;5.250;2023-04-06T04:57:57;5.50;99.90
16289;DHT22;26089;43.538;5.250;2023-04-06T05:00:25;5.70;99.90
16289;DHT22;26089;43.538;5.250;2023-04-06T05:02:52;5.40;99.90
16289;DHT22;26089;43.538;5.250;2023-04-06T05:05:19;5.70;99.90
16289;DHT22;26089;43.538;5.250;2023-04-06T05:07:47;5.80;99.90
16289;DHT22;26089;43.538;5.250;2023-04-06T05:10:15;5.90;99.90
16289;DHT22;26089;43.538;5.250;2023-04-06T05:12:42;5.90;99.90
16289;DHT22;26089;43.538;5.250;2023-04-06T05:15:10;6.00;99.90
16289;DHT22;26089;43.538;5.250;2023-04-06T05:17:37;5.50;99.90
16289;DHT22;26089;43.538;5.250;2023-04-06T05:20:05;5.60;99.90
16289;DHT22;26089;43.538;5.250;2023-04-06T05:22:32;5.40;99.90
16289;DHT22;26089;43.538;5.250;2023-04-06T05:25:01;5.00;99.90
16289;DHT22;26089;43.538;5.250;2023-04-06T05:27:28;5.50;99.90
16289;DHT22;26089;43.538;5.250;2023-04-06T05:29:55;5.20;99.90
16289;DHT22;26089;43.538;5.250;2023-04-06T05:32:22;5.70;99.90
16289;DHT22;26089;43.538;5.250;2023-04-06T05:34:50;5.80;99.90
16289;DHT22;26089;43.538;5.250;2023-04-06T05:37:17;6.00;99.90
16289;DHT22;26089;43.538;5.250;2023-04-06T05:39:44;5.70;99.90
16289;DHT22;26089;43.538;5.250;2023-04-06T05:42:13;6.20;99.90
16289;DHT22;26089;43.538;5.250;2023-04-06T05:44:40;6.30;99.90
16289;DHT22;26089;43.538;5.250;2023-04-06T05:47:07;6.30;99.90
16289;DHT22;26089;43.538;5.250;2023-04-06T05:49:35;6.40;99.90
16289;DHT22;26089;43.538;5.250;2023-04-06T05:52:02;6.40;99.90
16289;DHT22;26089;43.538;5.250;2023-04-06T05:54:29;6.40;99.90
16289;DHT22;26089;43.538;5.250;2023-04-06T05:56:56;6.50;99.90
16289;DHT22;26089;43.538;5.250;2023-04-06T05:59:25;6.50;99.90
16289;DHT22;26089;43.538;5.250;2023-04-06T06:01:52;6.80;99.90
16289;DHT22;26089;43.538;5.250;2023-04-06T06:04:19;6.70;99.90
16289;DHT22;26089;43.538;5.250;2023-04-06T06:06:46;6.80;99.90
16289;DHT22;26089;43.538;5.250;2023-04-06T06:09:13;6.90;99.90
16289;DHT22;26089;43.538;5.250;2023-04-06T06:11:40;7.00;99.90
16289;DHT22;26089;43.538;5.250;2023-04-06T06:14:07;7.10;99.90
16289;DHT22;26089;43.538;5.250;2023-04-06T06:16:36;7.20;99.90
16289;DHT22;26089;43.538;5.250;2023-04-06T06:19:03;7.70;99.90
16289;DHT22;26089;43.538;5.250;2023-04-06T06:21:30;7.50;99.90
16289;DHT22;26089;43.538;5.250;2023-04-06T06:23:57;7.60;99.90
16289;DHT22;26089;43.538;5.250;2023-04-06T06:26:24;7.90;99.90
16289;DHT22;26089;43.538;5.250;2023-04-06T06:28:51;8.20;99.90
16289;DHT22;26089;43.538;5.250;2023-04-06T06:31:18;8.40;99.90
16289;DHT22;26089;43.538;5.250;2023-04-06T06:33:47;9.50;99.90
16289;DHT22;26089;43.538;5.250;2023-04-06T06:36:16;8.60;99.90
16289;DHT22;26089;43.538;5.250;2023-04-06T06:38:43;8.70;99.90
16289;DHT22;26089;43.538;5.250;2023-04-06T06:41:10;8.70;99.90
16289;DHT22;26089;43.538;5.250;2023-04-06T06:43:38;8.70;99.90
16289;DHT22;26089;43.538;5.250;2023-04-06T06:46:05;8.70;99.90
16289;DHT22;26089;43.538;5.250;2023-04-06T06:48:32;8.80;99.90
16289;DHT22;26089;43.538;5.250;2023-04-06T06:51:00;9.00;99.90
16289;DHT22;26089;43.538;5.250;2023-04-06T06:53:28;8.90;99.90
16289;DHT22;26089;43.538;5.250;2023-04-06T06:55:55;9.70;99.90
16289;DHT22;26089;43.538;5.250;2023-04-06T06:58:22;9.20;99.90
16289;DHT22;26089;43.538;5.250;2023-04-06T07:00:49;9.40;99.90
16289;DHT22;26089;43.538;5.250;2023-04-06T07:03:16;10.20;99.90
16289;DHT22;26089;43.538;5.250;2023-04-06T07:05:45;11.50;99.90
16289;DHT22;26089;43.538;5.250;2023-04-06T07:08:17;12.80;99.90
16289;DHT22;26089;43.538;5.250;2023-04-06T07:10:44;14.30;99.90
16289;DHT22;26089;43.538;5.250;2023-04-06T07:13:11;15.30;99.90
16289;DHT22;26089;43.538;5.250;2023-04-06T07:15:40;16.20;99.90
16289;DHT22;26089;43.538;5.250;2023-04-06T07:18:07;16.70;99.90
16289;DHT22;26089;43.538;5.250;2023-04-06T07:20:34;17.20;99.90
16289;DHT22;26089;43.538;5.250;2023-04-06T07:23:01;17.70;99.90
16289;DHT22;26089;43.538;5.250;2023-04-06T07:25:29;18.10;99.90
16289;DHT22;26089;43.538;5.250;2023-04-06T07:27:57;18.60;99.90
16289;DHT22;26089;43.538;5.250;2023-04-06T07:30:24;18.80;99.90
16289;DHT22;26089;43.538;5.250;2023-04-06T07:32:52;19.00;99.90
16289;DHT22;26089;43.538;5.250;2023-04-06T07:35:21;19.40;99.90
16289;DHT22;26089;43.538;5.250;2023-04-06T07:37:48;19.50;99.90
16289;DHT22;26089;43.538;5.250;2023-04-06T07:40:15;19.80;99.90
16289;DHT22;26089;43.538;5.250;2023-04-06T07:42:44;19.70;99.80
16289;DHT22;26089;43.538;5.250;2023-04-06T07:45:11;19.20;99.90
16289;DHT22;26089;43.538;5.250;2023-04-06T07:47:38;19.60;99.90
16289;DHT22;26089;43.538;5.250;2023-04-06T07:50:06;19.50;99.70
16289;DHT22;26089;43.538;5.250;2023-04-06T07:52:33;19.50;99.60
16289;DHT22;26089;43.538;5.250;2023-04-06T07:55:00;19.60;99.90
16289;DHT22;26089;43.538;5.250;2023-04-06T07:57:27;20.30;99.10
16289;DHT22;26089;43.538;5.250;2023-04-06T07:59:56;20.40;98.40
16289;DHT22;26089;43.538;5.250;2023-04-06T08:02:23;20.50;98.00
16289;DHT22;26089;43.538;5.250;2023-04-06T08:04:50;20.50;98.00
16289;DHT22;26089;43.538;5.250;2023-04-06T08:07:17;19.80;98.40
16289;DHT22;26089;43.538;5.250;2023-04-06T08:09:44;20.20;98.50
16289;DHT22;26089;43.538;5.250;2023-04-06T08:12:11;20.80;98.10
16289;DHT22;26089;43.538;5.250;2023-04-06T08:14:38;21.40;97.10
16289;DHT22;26089;43.538;5.250;2023-04-06T08:17:06;21.40;96.40
16289;DHT22;26089;43.538;5.250;2023-04-06T08:19:33;21.30;96.70
16289;DHT22;26089;43.538;5.250;2023-04-06T08:22:00;21.50;97.30
16289;DHT22;26089;43.538;5.250;2023-04-06T08:24:28;21.70;96.70
16289;DHT22;26089;43.538;5.250;2023-04-06T08:26:56;21.70;96.90
16289;DHT22;26089;43.538;5.250;2023-04-06T08:29:23;21.10;96.80
16289;DHT22;26089;43.538;5.250;2023-04-06T08:31:50;20.90;97.10
16289;DHT22;26089;43.538;5.250;2023-04-06T08:34:18;21.60;96.80
16289;DHT22;26089;43.538;5.250;2023-04-06T08:36:45;21.70;97.20
16289;DHT22;26089;43.538;5.250;2023-04-06T08:39:12;22.00;96.60
16289;DHT22;26089;43.538;5.250;2023-04-06T08:41:41;22.10;96.30
16289;DHT22;26089;43.538;5.250;2023-04-06T08:44:09;21.20;96.60
16289;DHT22;26089;43.538;5.250;2023-04-06T08:46:37;21.30;96.60
16289;DHT22;26089;43.538;5.250;2023-04-06T08:49:04;21.60;96.20
16289;DHT22;26089;43.538;5.250;2023-04-06T08:51:36;21.90;95.80
16289;DHT22;26089;43.538;5.250;2023-04-06T08:54:04;22.10;95.10
16289;DHT22;26089;43.538;5.250;2023-04-06T08:56:31;21.80;95.40
16289;DHT22;26089;43.538;5.250;2023-04-06T08:58:59;21.30;95.20
16289;DHT22;26089;43.538;5.250;2023-04-06T09:01:27;21.30;96.40
16289;DHT22;26089;43.538;5.250;2023-04-06T09:03:56;21.70;95.90
16289;DHT22;26089;43.538;5.250;2023-04-06T09:06:24;21.90;96.00
16289;DHT22;26089;43.538;5.250;2023-04-06T09:08:54;21.60;96.00
16289;DHT22;26089;43.538;5.250;2023-04-06T09:11:22;21.30;95.80
16289;DHT22;26089;43.538;5.250;2023-04-06T09:13:51;21.30;95.10
16289;DHT22;26089;43.538;5.250;2023-04-06T09:16:19;21.30;95.60
16289;DHT22;26089;43.538;5.250;2023-04-06T09:18:46;21.20;95.80
16289;DHT22;26089;43.538;5.250;2023-04-06T09:21:17;21.60;95.60
16289;DHT22;26089;43.538;5.250;2023-04-06T09:23:44;21.80;95.30
16289;DHT22;26089;43.538;5.250;2023-04-06T09:26:14;21.80;94.40
16289;DHT22;26089;43.538;5.250;2023-04-06T09:28:45;21.60;94.90
16289;DHT22;26089;43.538;5.250;2023-04-06T09:31:13;21.40;94.60
16289;DHT22;26089;43.538;5.250;2023-04-06T09:33:41;21.40;94.60
16289;DHT22;26089;43.538;5.250;2023-04-06T09:36:09;21.50;94.60
16289;DHT22;26089;43.538;5.250;2023-04-06T09:38:52;20.40;94.80
16289;DHT22;26089;43.538;5.250;2023-04-06T09:41:25;20.60;96.10
16289;DHT22;26089;43.538;5.250;2023-04-06T09:44:01;21.30;95.00
16289;DHT22;26089;43.538;5.250;2023-04-06T09:46:31;20.80;93.80
16289;DHT22;26089;43.538;5.250;2023-04-06T09:49:00;21.00;93.90
16289;DHT22;26089;43.538;5.250;2023-04-06T09:51:30;21.20;93.90
16289;DHT22;26089;43.538;5.250;2023-04-06T09:53:57;21.50;93.80
16289;DHT22;26089;43.538;5.250;2023-04-06T09:56:33;21.80;96.40
16289;DHT22;26089;43.538;5.250;2023-04-06T09:59:02;21.60;96.70
16289;DHT22;26089;43.538;5.250;2023-04-06T10:01:32;21.90;96.90
16289;DHT22;26089;43.538;5.250;2023-04-06T10:04:06;21.80;96.40
16289;DHT22;26089;43.538;5.250;2023-04-06T10:06:38;21.90;96.70
16289;DHT22;26089;43.538;5.250;2023-04-06T10:09:07;21.70;96.00
16289;DHT22;26089;43.538;5.250;2023-04-06T10:11:36;21.70;96.10
16289;DHT22;26089;43.538;5.250;2023-04-06T10:14:03;21.60;96.80
16289;DHT22;26089;43.538;5.250;2023-04-06T10:16:31;21.70;95.60
16289;DHT22;26089;43.538;5.250;2023-04-06T10:19:02;22.10;94.60
16289;DHT22;26089;43.538;5.250;2023-04-06T10:21:33;22.10;94.70
16289;DHT22;26089;43.538;5.250;2023-04-06T10:24:06;22.30;94.90
16289;DHT22;26089;43.538;5.250;2023-04-06T10:26:36;22.10;94.60
16289;DHT22;26089;43.538;5.250;2023-04-06T10:29:04;21.60;95.20
16289;DHT22;26089;43.538;5.250;2023-04-06T10:31:32;21.50;95.00
16289;DHT22;26089;43.538;5.250;2023-04-06T10:34:00;21.00;95.10
16289;DHT22;26089;43.538;5.250;2023-04-06T10:36:28;21.00;95.60
16289;DHT22;26089;43.538;5.250;2023-04-06T10:38:57;21.40;95.60
16289;DHT22;26089;43.538;5.250;2023-04-06T10:41:32;21.40;94.60
16289;DHT22;26089;43.538;5.250;2023-04-06T10:44:01;21.30;94.40
16289;DHT22;26089;43.538;5.250;2023-04-06T10:46:29;21.60;94.60
16289;DHT22;26089;43.538;5.250;2023-04-06T10:48:57;21.60;94.20
16289;DHT22;26089;43.538;5.250;2023-04-06T10:51:27;21.50;94.50
16289;DHT22;26089;43.538;5.250;2023-04-06T10:53:55;21.70;94.40
16289;DHT22;26089;43.538;5.250;2023-04-06T10:56:24;22.00;93.90
16289;DHT22;26089;43.538;5.250;2023-04-06T10:58:54;21.80;93.80
16289;DHT22;26089;43.538;5.250;2023-04-06T11:01:24;21.80;93.50
16289;DHT22;26089;43.538;5.250;2023-04-06T11:03:54;21.90;93.00
16289;DHT22;26089;43.538;5.250;2023-04-06T11:06:22;22.20;93.60
16289;DHT22;26089;43.538;5.250;2023-04-06T11:08:50;22.00;92.30
16289;DHT22;26089;43.538;5.250;2023-04-06T11:11:19;22.40;93.30
16289;DHT22;26089;43.538;5.250;2023-04-06T11:13:48;22.60;91.90
16289;DHT22;26089;43.538;5.250;2023-04-06T11:16:16;23.10;92.60
16289;DHT22;26089;43.538;5.250;2023-04-06T11:18:49;23.70;91.90
16289;DHT22;26089;43.538;5.250;2023-04-06T11:21:16;24.00;90.60
16289;DHT22;26089;43.538;5.250;2023-04-06T11:23:44;23.60;88.70
16289;DHT22;26089;43.538;5.250;2023-04-06T11:26:11;22.80;90.20
16289;DHT22;26089;43.538;5.250;2023-04-06T11:28:40;22.80;90.00
16289;DHT22;26089;43.538;5.250;2023-04-06T11:31:09;22.70;88.90
16289;DHT22;26089;43.538;5.250;2023-04-06T11:33:36;21.80;90.00
16289;DHT22;26089;43.538;5.250;2023-04-06T11:36:06;22.30;90.60
16289;DHT22;26089;43.538;5.250;2023-04-06T11:38:33;23.30;86.60
16289;DHT22;26089;43.538;5.250;2023-04-06T11:41:01;23.00;86.30
16289;DHT22;26089;43.538;5.250;2023-04-06T11:43:29;23.20;83.50
16289;DHT22;26089;43.538;5.250;2023-04-06T11:46:00;22.50;83.90
16289;DHT22;26089;43.538;5.250;2023-04-06T11:48:29;21.70;84.50
16289;DHT22;26089;43.538;5.250;2023-04-06T11:50:56;21.70;83.10
16289;DHT22;26089;43.538;5.250;2023-04-06T11:53:27;20.90;84.70
16289;DHT22;26089;43.538;5.250;2023-04-06T11:55:55;20.30;85.10
16289;DHT22;26089;43.538;5.250;2023-04-06T11:58:22;19.70;88.00
16289;DHT22;26089;43.538;5.250;2023-04-06T12:00:49;19.40;88.00
16289;DHT22;26089;43.538;5.250;2023-04-06T12:03:16;19.20;89.20
16289;DHT22;26089;43.538;5.250;2023-04-06T12:05:44;20.00;90.00
16289;DHT22;26089;43.538;5.250;2023-04-06T12:08:11;21.30;89.70
16289;DHT22;26089;43.538;5.250;2023-04-06T12:10:39;21.60;87.60
16289;DHT22;26089;43.538;5.250;2023-04-06T12:13:06;22.60;86.70
16289;DHT22;26089;43.538;5.250;2023-04-06T12:15:33;22.70;85.00
16289;DHT22;26089;43.538;5.250;2023-04-06T12:18:01;22.60;83.90
16289;DHT22;26089;43.538;5.250;2023-04-06T12:20:28;22.20;85.00
16289;DHT22;26089;43.538;5.250;2023-04-06T12:22:55;21.70;86.90
16289;DHT22;26089;43.538;5.250;2023-04-06T12:25:22;21.20;88.00
16289;DHT22;26089;43.538;5.250;2023-04-06T12:27:50;20.70;86.90
16289;DHT22;26089;43.538;5.250;2023-04-06T12:30:18;20.00;85.80
16289;DHT22;26089;43.538;5.250;2023-04-06T12:32:45;19.80;89.80
16289;DHT22;26089;43.538;5.250;2023-04-06T12:35:12;20.20;90.70
16289;DHT22;26089;43.538;5.250;2023-04-06T12:37:41;20.90;87.60
16289;DHT22;26089;43.538;5.250;2023-04-06T12:40:10;20.50;83.70
16289;DHT22;26089;43.538;5.250;2023-04-06T12:42:38;19.70;82.90
16289;DHT22;26089;43.538;5.250;2023-04-06T12:45:09;19.30;85.00
16289;DHT22;26089;43.538;5.250;2023-04-06T12:47:36;19.40;86.30
16289;DHT22;26089;43.538;5.250;2023-04-06T12:50:04;19.40;86.10
16289;DHT22;26089;43.538;5.250;2023-04-06T12:52:32;19.80;85.70
16289;DHT22;26089;43.538;5.250;2023-04-06T12:55:01;20.10;86.40
16289;DHT22;26089;43.538;5.250;2023-04-06T12:57:28;19.90;85.10
16289;DHT22;26089;43.538;5.250;2023-04-06T12:59:55;19.90;85.70
16289;DHT22;26089;43.538;5.250;2023-04-06T13:02:23;20.80;85.90
16289;DHT22;26089;43.538;5.250;2023-04-06T13:04:51;21.20;85.10
16289;DHT22;26089;43.538;5.250;2023-04-06T13:07:18;21.70;83.00
16289;DHT22;26089;43.538;5.250;2023-04-06T13:09:45;22.10;82.80
16289;DHT22;26089;43.538;5.250;2023-04-06T13:12:15;22.40;83.00
16289;DHT22;26089;43.538;5.250;2023-04-06T13:14:42;22.40;82.30
16289;DHT22;26089;43.538;5.250;2023-04-06T13:17:09;22.90;82.70
16289;DHT22;26089;43.538;5.250;2023-04-06T13:19:37;23.00;82.70
16289;DHT22;26089;43.538;5.250;2023-04-06T13:22:05;22.90;81.20
16289;DHT22;26089;43.538;5.250;2023-04-06T13:24:32;22.70;80.80
16289;DHT22;26089;43.538;5.250;2023-04-06T13:26:59;22.60;81.00
16289;DHT22;26089;43.538;5.250;2023-04-06T13:29:28;22.20;81.60
16289;DHT22;26089;43.538;5.250;2023-04-06T13:31:55;22.10;83.00
16289;DHT22;26089;43.538;5.250;2023-04-06T13:34:22;22.60;83.10
16289;DHT22;26089;43.538;5.250;2023-04-06T13:36:50;22.80;82.50
16289;DHT22;26089;43.538;5.250;2023-04-06T13:39:17;22.10;83.30
16289;DHT22;26089;43.538;5.250;2023-04-06T13:41:44;20.40;86.50
16289;DHT22;26089;43.538;5.250;2023-04-06T13:44:11;19.90;89.30
16289;DHT22;26089;43.538;5.250;2023-04-06T13:46:38;19.90;90.30
16289;DHT22;26089;43.538;5.250;2023-04-06T13:49:05;20.10;91.20
16289;DHT22;26089;43.538;5.250;2023-04-06T13:51:32;20.30;89.40
16289;DHT22;26089;43.538;5.250;2023-04-06T13:54:01;20.40;90.20
16289;DHT22;26089;43.538;5.250;2023-04-06T13:56:28;20.40;90.80
16289;DHT22;26089;43.538;5.250;2023-04-06T13:58:55;20.30;91.40
16289;DHT22;26089;43.538;5.250;2023-04-06T14:01:22;19.90;91.90
16289;DHT22;26089;43.538;5.250;2023-04-06T14:03:51;20.10;92.70
16289;DHT22;26089;43.538;5.250;2023-04-06T14:06:18;19.90;93.70
16289;DHT22;26089;43.538;5.250;2023-04-06T14:08:45;20.40;93.00
16289;DHT22;26089;43.538;5.250;2023-04-06T14:11:14;20.80;92.90
16289;DHT22;26089;43.538;5.250;2023-04-06T14:13:41;20.70;93.00
16289;DHT22;26089;43.538;5.250;2023-04-06T14:16:08;20.50;92.80
16289;DHT22;26089;43.538;5.250;2023-04-06T14:18:36;20.60;92.70
16289;DHT22;26089;43.538;5.250;2023-04-06T14:21:04;20.60;92.00
16289;DHT22;26089;43.538;5.250;2023-04-06T14:23:31;20.50;91.80
16289;DHT22;26089;43.538;5.250;2023-04-06T14:26:02;19.80;92.40
16289;DHT22;26089;43.538;5.250;2023-04-06T14:28:31;18.70;93.40
16289;DHT22;26089;43.538;5.250;2023-04-06T14:30:59;18.10;93.80
16289;DHT22;26089;43.538;5.250;2023-04-06T14:33:26;17.90;94.00
16289;DHT22;26089;43.538;5.250;2023-04-06T14:35:53;18.40;94.50
16289;DHT22;26089;43.538;5.250;2023-04-06T14:38:20;19.00;94.00
16289;DHT22;26089;43.538;5.250;2023-04-06T14:40:47;19.70;94.30
16289;DHT22;26089;43.538;5.250;2023-04-06T14:43:14;20.20;93.30
16289;DHT22;26089;43.538;5.250;2023-04-06T14:45:43;19.80;92.80
16289;DHT22;26089;43.538;5.250;2023-04-06T14:48:10;19.50;93.90
16289;DHT22;26089;43.538;5.250;2023-04-06T14:50:38;19.20;95.20
16289;DHT22;26089;43.538;5.250;2023-04-06T14:53:05;19.50;95.40
16289;DHT22;26089;43.538;5.250;2023-04-06T14:55:32;19.00;95.60
16289;DHT22;26089;43.538;5.250;2023-04-06T14:57:59;19.10;96.00
16289;DHT22;26089;43.538;5.250;2023-04-06T15:00:26;19.00;96.40
16289;DHT22;26089;43.538;5.250;2023-04-06T15:02:55;19.10;95.70
16289;DHT22;26089;43.538;5.250;2023-04-06T15:05:22;19.00;95.80
16289;DHT22;26089;43.538;5.250;2023-04-06T15:07:49;19.00;95.40
16289;DHT22;26089;43.538;5.250;2023-04-06T15:10:16;19.00;95.40
16289;DHT22;26089;43.538;5.250;2023-04-06T15:12:43;19.30;95.70
16289;DHT22;26089;43.538;5.250;2023-04-06T15:15:10;19.40;96.00
16289;DHT22;26089;43.538;5.250;2023-04-06T15:17:37;19.50;96.10
16289;DHT22;26089;43.538;5.250;2023-04-06T15:20:06;19.40;95.60
16289;DHT22;26089;43.538;5.250;2023-04-06T15:22:33;19.30;95.70
16289;DHT22;26089;43.538;5.250;2023-04-06T15:25:00;19.20;94.90
16289;DHT22;26089;43.538;5.250;2023-04-06T15:27:27;19.20;94.00
16289;DHT22;26089;43.538;5.250;2023-04-06T15:29:54;19.10;93.70
16289;DHT22;26089;43.538;5.250;2023-04-06T15:32:23;19.20;94.30
16289;DHT22;26089;43.538;5.250;2023-04-06T15:34:52;19.40;94.20
16289;DHT22;26089;43.538;5.250;2023-04-06T15:37:21;19.40;94.20
16289;DHT22;26089;43.538;5.250;2023-04-06T15:39:48;19.60;94.20